South Twigg, Illinois
Current Conditions -  °F | °C
As of 11:55 PM on Tuesday 21 Oct 2014 (Local Time) from KHSB Reporting Station
Clear Clear  
Wind Chill: 43°   Ceiling: Unl
Heat Index: 47°   Visibility: 10mi
Dew Point: 41°   Wind: 7mph
Humidity: 81%   Direction: 20°NNE
Pressure: 30.21"   Gusts: NA
Location:  37.962°N, 88.4577°W
Report Text: KHSB 220455Z AUTO 02006KT 10SM CLR 08/05 A3021 RMK AO2 T00810050
Loading
Personal Weather Stations






























Interactive Weather Map
Tropical Storm Tracking
New forecast layout! Learn more

10-Day Weather Forecast

Advertisements
Track Severe Weather on mobile